createdAt,value
2022-08-25T00:00:20.639Z,22.5
2022-08-25T00:01:29.747Z,21
2022-08-25T00:02:37.567Z,21
2022-08-25T00:03:45.885Z,21
2022-08-25T00:04:54.437Z,23.799999
2022-08-25T00:06:02.778Z,23.799999
2022-08-25T00:07:11.122Z,23.799999
2022-08-25T00:08:19.669Z,20.799999
2022-08-25T00:09:28.002Z,20.799999
2022-08-25T00:10:36.367Z,20.799999
2022-08-25T00:11:44.925Z,24.299999
2022-08-25T00:12:53.281Z,24.299999
2022-08-25T00:14:01.622Z,24.299999
2022-08-25T00:15:10.162Z,23
2022-08-25T00:16:18.633Z,23
2022-08-25T00:17:26.843Z,23
2022-08-25T00:18:35.392Z,24.299999
2022-08-25T00:19:43.749Z,24.299999
2022-08-25T00:20:52.095Z,24.299999
2022-08-25T00:22:00.650Z,21.200001
2022-08-25T00:23:09.004Z,21.200001
2022-08-25T00:24:17.336Z,21.200001
2022-08-25T00:25:25.908Z,22.1
2022-08-25T00:26:34.264Z,22.1
2022-08-25T00:27:42.591Z,22.1
2022-08-25T00:28:51.146Z,20.6
2022-08-25T00:29:59.485Z,20.6
2022-08-25T00:31:07.864Z,20.6
2022-08-25T00:32:16.392Z,21.799999
2022-08-25T00:33:24.724Z,21.799999
2022-08-25T00:34:33.080Z,21.799999
2022-08-25T00:35:41.656Z,21.4
2022-08-25T00:36:49.990Z,21.4
2022-08-25T00:37:58.334Z,21.4
2022-08-25T00:39:06.886Z,21.5
2022-08-25T00:40:15.276Z,21.5
2022-08-25T00:41:23.555Z,21.5
2022-08-25T00:42:32.139Z,21.700001
2022-08-25T00:43:40.485Z,21.700001
2022-08-25T00:44:48.828Z,21.700001
2022-08-25T00:45:57.411Z,19.799999
2022-08-25T00:47:05.733Z,19.799999
2022-08-25T00:48:14.060Z,19.799999
2022-08-25T00:49:25.172Z,19.299999
2022-08-25T00:50:30.977Z,19.299999
2022-08-25T00:51:39.309Z,19.299999
2022-08-25T00:52:47.845Z,20.299999
2022-08-25T00:53:56.186Z,20.299999
2022-08-25T00:55:07.682Z,20.299999
2022-08-25T00:56:13.068Z,19.1
2022-08-25T00:57:22.169Z,19.1
2022-08-25T00:58:29.749Z,19.1
2022-08-25T00:59:38.296Z,18.6
2022-08-25T01:00:46.641Z,18.6
2022-08-25T01:01:55.053Z,18.6
2022-08-25T01:03:03.636Z,19.799999
2022-08-25T01:04:11.885Z,19.799999
2022-08-25T01:05:20.218Z,19.799999
2022-08-25T01:06:28.787Z,21.1
2022-08-25T01:07:37.136Z,21.1
2022-08-25T01:08:45.459Z,21.1
2022-08-25T01:09:54.015Z,20.1
2022-08-25T01:11:02.363Z,20.1
2022-08-25T01:12:10.703Z,20.1
2022-08-25T01:13:19.244Z,19.5
2022-08-25T01:14:27.598Z,19.5
2022-08-25T01:15:35.963Z,19.5
2022-08-25T01:16:44.474Z,20.6
2022-08-25T01:17:52.822Z,20.6
2022-08-25T01:19:01.160Z,20.6
2022-08-25T01:20:09.707Z,21.200001
2022-08-25T01:21:18.049Z,21.200001
2022-08-25T01:22:26.394Z,21.200001
2022-08-25T01:23:34.952Z,20.299999
2022-08-25T01:24:43.294Z,20.299999
2022-08-25T01:25:51.654Z,20.299999
2022-08-25T01:27:00.187Z,20.6
2022-08-25T01:28:08.538Z,20.6
2022-08-25T01:29:16.874Z,20.6
2022-08-25T01:30:25.436Z,21.1
2022-08-25T01:31:33.821Z,21.1
2022-08-25T01:32:42.129Z,21.1
2022-08-25T01:33:50.675Z,22.200001
2022-08-25T01:34:59.020Z,22.200001
2022-08-25T01:36:07.354Z,22.200001
2022-08-25T01:37:15.903Z,23.1
2022-08-25T01:38:24.245Z,23.1
2022-08-25T01:39:32.596Z,23.1
2022-08-25T01:40:41.158Z,22.299999
2022-08-25T01:41:50.517Z,22.299999
2022-08-25T01:42:57.840Z,22.299999
2022-08-25T01:44:06.396Z,23
2022-08-25T01:45:14.734Z,23
2022-08-25T01:46:23.136Z,23
2022-08-25T01:47:31.623Z,19.799999
2022-08-25T01:48:39.954Z,19.799999
2022-08-25T01:49:48.313Z,19.799999
2022-08-25T01:50:56.857Z,24.5
2022-08-25T01:52:05.201Z,24.5
2022-08-25T01:53:13.534Z,24.5
2022-08-25T01:54:22.094Z,20
2022-08-25T01:55:30.433Z,20
2022-08-25T01:56:38.767Z,20
2022-08-25T01:57:47.306Z,23.299999
2022-08-25T01:58:55.663Z,23.299999
2022-08-25T02:00:04.003Z,23.299999
2022-08-25T02:01:12.611Z,24.299999
2022-08-25T02:02:20.905Z,24.299999
2022-08-25T02:03:29.224Z,24.299999
2022-08-25T02:04:37.772Z,20.1
2022-08-25T02:05:46.114Z,20.1
2022-08-25T02:06:54.465Z,20.1
2022-08-25T02:08:03.115Z,23
2022-08-25T02:09:11.355Z,23
2022-08-25T02:10:19.692Z,23
2022-08-25T02:11:28.247Z,23.4
2022-08-25T02:12:36.584Z,23.4
2022-08-25T02:13:44.938Z,23.4
2022-08-25T02:14:53.474Z,21.5
2022-08-25T02:16:01.807Z,21.5
2022-08-25T02:17:10.149Z,21.5
2022-08-25T02:18:18.717Z,21.6
2022-08-25T02:19:27.077Z,21.6
2022-08-25T02:20:35.415Z,21.6
2022-08-25T02:21:43.958Z,23.1
2022-08-25T02:22:56.535Z,23.1
2022-08-25T02:24:00.658Z,23.1
2022-08-25T02:25:09.203Z,24.799999
2022-08-25T02:26:17.555Z,24.799999
2022-08-25T02:27:25.911Z,24.799999
2022-08-25T02:28:34.470Z,20.9
2022-08-25T02:29:42.793Z,20.9
2022-08-25T02:30:51.177Z,20.9
2022-08-25T02:31:59.669Z,23.200001
2022-08-25T02:33:08.021Z,23.200001
2022-08-25T02:34:16.357Z,23.200001
2022-08-25T02:35:24.894Z,21.5
2022-08-25T02:36:33.236Z,21.5
2022-08-25T02:37:41.587Z,21.5
2022-08-25T02:38:50.153Z,24.9
2022-08-25T02:39:58.531Z,24.9
2022-08-25T02:41:06.847Z,24.9
2022-08-25T02:42:15.400Z,23.6
2022-08-25T02:43:23.771Z,23.6
2022-08-25T02:44:32.109Z,23.6
2022-08-25T02:45:40.680Z,23.799999
2022-08-25T02:46:49.002Z,23.799999
2022-08-25T02:47:57.354Z,23.799999
2022-08-25T02:49:05.896Z,24.5
2022-08-25T02:50:14.234Z,24.5
2022-08-25T02:51:22.573Z,24.5
2022-08-25T02:52:31.110Z,24.799999
2022-08-25T02:53:39.459Z,24.799999
2022-08-25T02:54:47.791Z,24.799999
2022-08-25T02:55:56.338Z,24.6
2022-08-25T02:57:04.679Z,24.6
2022-08-25T02:58:13.021Z,24.6
2022-08-25T02:59:21.551Z,24.4
2022-08-25T03:00:29.895Z,24.4
2022-08-25T03:01:38.271Z,24.4
2022-08-25T03:02:46.805Z,25.6
2022-08-25T03:03:55.219Z,25.6
2022-08-25T03:05:03.510Z,25.6
2022-08-25T03:06:12.011Z,24.6
2022-08-25T03:07:20.359Z,24.6
2022-08-25T03:08:28.708Z,24.6
2022-08-25T03:09:37.254Z,27.4
2022-08-25T03:10:45.599Z,27.4
2022-08-25T03:11:53.937Z,27.4
2022-08-25T03:13:02.501Z,25.700001
2022-08-25T03:14:10.822Z,25.700001
2022-08-25T03:15:19.152Z,25.700001
2022-08-25T03:16:28.188Z,27.6
2022-08-25T03:17:36.061Z,27.6
2022-08-25T03:18:44.417Z,27.6
2022-08-25T03:19:52.965Z,24.200001
2022-08-25T03:21:01.305Z,24.200001
2022-08-25T03:22:09.651Z,24.200001
2022-08-25T03:23:18.233Z,24.1
2022-08-25T03:24:26.552Z,24.1
2022-08-25T03:25:34.882Z,24.1
2022-08-25T03:26:43.423Z,27
2022-08-25T03:27:51.769Z,27
2022-08-25T03:29:00.123Z,27
2022-08-25T03:30:08.667Z,24.4
2022-08-25T03:31:17.044Z,24.4
2022-08-25T03:32:25.362Z,24.4
2022-08-25T03:33:33.918Z,23.700001
2022-08-25T03:34:42.264Z,23.700001
2022-08-25T03:35:50.607Z,23.700001
2022-08-25T03:36:59.154Z,25.9
2022-08-25T03:38:07.505Z,25.9
2022-08-25T03:39:15.843Z,25.9
2022-08-25T03:40:24.479Z,28.200001
2022-08-25T03:41:32.787Z,28.200001
2022-08-25T03:42:44.834Z,28.200001
2022-08-25T03:43:50.616Z,28.200001
2022-08-25T03:44:58.969Z,28.200001
2022-08-25T03:46:07.372Z,28.200001
2022-08-25T03:47:15.840Z,27.5
2022-08-25T03:48:24.207Z,27.5
2022-08-25T03:49:32.555Z,27.5
2022-08-25T03:50:41.082Z,26.4
2022-08-25T03:51:49.424Z,26.4
2022-08-25T03:52:57.816Z,26.4
2022-08-25T03:54:06.359Z,24.700001
2022-08-25T03:55:14.695Z,24.700001
2022-08-25T03:56:23.025Z,24.700001
2022-08-25T03:57:31.582Z,26.4
2022-08-25T03:58:39.973Z,26.4
2022-08-25T03:59:48.291Z,26.4
2022-08-25T04:00:56.915Z,28
2022-08-25T04:02:05.229Z,28
2022-08-25T04:03:13.528Z,28
2022-08-25T04:04:22.108Z,25.299999
2022-08-25T04:05:30.440Z,25.299999
2022-08-25T04:06:38.787Z,25.299999
2022-08-25T04:07:47.362Z,27.200001
2022-08-25T04:08:55.710Z,27.200001
2022-08-25T04:10:04.043Z,27.200001
2022-08-25T04:11:12.602Z,23.200001
2022-08-25T04:12:20.934Z,23.200001
2022-08-25T04:13:29.279Z,23.200001
2022-08-25T04:14:37.835Z,24.799999
2022-08-25T04:15:46.168Z,24.799999
2022-08-25T04:16:54.542Z,24.799999
2022-08-25T04:18:03.098Z,26.700001
2022-08-25T04:19:11.411Z,26.700001
2022-08-25T04:20:19.743Z,26.700001
2022-08-25T04:21:28.289Z,26.299999
2022-08-25T04:22:36.778Z,26.299999
2022-08-25T04:23:44.977Z,26.299999
2022-08-25T04:24:53.527Z,25.700001
2022-08-25T04:26:01.864Z,25.700001
2022-08-25T04:27:10.221Z,25.700001
2022-08-25T04:28:18.775Z,26.200001
2022-08-25T04:29:27.105Z,26.200001
2022-08-25T04:30:35.447Z,26.200001
2022-08-25T04:31:44.109Z,25.5
2022-08-25T04:32:52.356Z,25.5
2022-08-25T04:34:00.703Z,25.5
2022-08-25T04:35:09.240Z,27
2022-08-25T04:36:17.590Z,27
2022-08-25T04:37:25.947Z,27
2022-08-25T04:38:34.511Z,29.1
2022-08-25T04:39:42.838Z,29.1
2022-08-25T04:40:51.200Z,29.1
2022-08-25T04:41:59.745Z,26.1
2022-08-25T04:43:08.097Z,26.1
2022-08-25T04:44:16.451Z,26.1
2022-08-25T04:45:25.013Z,28.4
2022-08-25T04:46:33.347Z,28.4
2022-08-25T04:47:41.693Z,28.4
2022-08-25T04:48:50.244Z,29.299999
2022-08-25T04:49:58.582Z,29.299999
2022-08-25T04:51:06.933Z,29.299999
2022-08-25T04:52:15.500Z,27.4
2022-08-25T04:53:23.843Z,27.4
2022-08-25T04:54:32.551Z,27.4
2022-08-25T04:55:40.691Z,28.700001
2022-08-25T04:56:49.028Z,28.700001
2022-08-25T04:57:57.385Z,28.700001
2022-08-25T04:59:05.931Z,27.299999
2022-08-25T05:00:14.280Z,27.299999
2022-08-25T05:01:22.650Z,27.299999
2022-08-25T05:02:31.185Z,26.700001
2022-08-25T05:03:39.540Z,26.700001
2022-08-25T05:04:47.918Z,26.700001
2022-08-25T05:05:56.421Z,28.6
2022-08-25T05:07:04.787Z,28.6
2022-08-25T05:08:13.138Z,28.6
2022-08-25T05:09:21.707Z,27.799999
2022-08-25T05:10:30.009Z,27.799999
2022-08-25T05:11:38.377Z,27.799999
2022-08-25T05:12:46.912Z,29.799999
2022-08-25T05:13:55.259Z,29.799999
2022-08-25T05:15:03.618Z,29.799999
2022-08-25T05:16:12.212Z,25.700001
2022-08-25T05:17:20.510Z,25.700001
2022-08-25T05:18:28.856Z,25.700001
2022-08-25T05:19:37.416Z,26.299999
2022-08-25T05:20:45.743Z,26.299999
2022-08-25T05:21:54.176Z,26.299999
2022-08-25T05:23:02.627Z,30.799999
2022-08-25T05:24:10.961Z,30.799999
2022-08-25T05:25:19.313Z,30.799999
2022-08-25T05:26:27.855Z,29.299999
2022-08-25T05:27:36.212Z,29.299999
2022-08-25T05:28:44.559Z,29.299999
2022-08-25T05:29:53.129Z,30
2022-08-25T05:31:01.485Z,30
2022-08-25T05:32:09.871Z,30
2022-08-25T05:33:18.399Z,29.1
2022-08-25T05:34:26.726Z,29.1
2022-08-25T05:35:35.063Z,29.1
2022-08-25T05:36:43.713Z,28.4
2022-08-25T05:37:51.975Z,28.4
2022-08-25T05:39:00.306Z,28.4
2022-08-25T05:40:08.891Z,30
2022-08-25T05:41:17.232Z,30
2022-08-25T05:42:25.559Z,30
2022-08-25T05:43:34.105Z,30.700001
2022-08-25T05:44:42.455Z,30.700001
2022-08-25T05:45:50.797Z,30.700001
2022-08-25T05:46:59.337Z,30.4
2022-08-25T05:48:07.679Z,30.4
2022-08-25T05:49:15.997Z,30.4
2022-08-25T05:50:24.549Z,32.400002
2022-08-25T05:51:32.915Z,32.400002
2022-08-25T05:52:41.253Z,32.400002
2022-08-25T05:53:49.811Z,30.5
2022-08-25T05:54:58.131Z,30.5
2022-08-25T05:56:06.462Z,30.5
2022-08-25T05:57:15.035Z,27
2022-08-25T05:58:23.384Z,27
2022-08-25T05:59:31.712Z,27
2022-08-25T06:00:40.289Z,28
2022-08-25T06:01:48.613Z,28
2022-08-25T06:02:56.956Z,28
2022-08-25T06:04:05.553Z,29.700001
2022-08-25T06:05:13.832Z,29.700001
2022-08-25T06:06:22.189Z,29.700001
2022-08-25T06:07:30.736Z,29.299999
2022-08-25T06:08:39.076Z,29.299999
2022-08-25T06:09:47.416Z,29.299999
2022-08-25T06:10:55.970Z,30.700001
2022-08-25T06:12:04.316Z,30.700001
2022-08-25T06:13:12.665Z,30.700001
2022-08-25T06:14:21.191Z,30.5
2022-08-25T06:15:29.524Z,30.5
2022-08-25T06:16:37.910Z,30.5
2022-08-25T06:17:46.431Z,31.6
2022-08-25T06:18:54.773Z,31.6
2022-08-25T06:20:03.110Z,31.6
2022-08-25T06:21:11.679Z,29.6
2022-08-25T06:22:20.017Z,29.6
2022-08-25T06:23:28.354Z,29.6
2022-08-25T06:24:36.902Z,32.099998
2022-08-25T06:25:45.247Z,32.099998
2022-08-25T06:26:53.595Z,32.099998
2022-08-25T06:28:02.138Z,30.799999
2022-08-25T06:29:10.462Z,30.799999
2022-08-25T06:30:22.510Z,30.799999
2022-08-25T06:31:27.443Z,28.200001
2022-08-25T06:32:35.708Z,28.200001
2022-08-25T06:33:44.068Z,28.200001
2022-08-25T06:34:52.600Z,31.700001
2022-08-25T06:36:00.940Z,31.700001
2022-08-25T06:37:09.290Z,31.700001
2022-08-25T06:38:17.842Z,33.099998
2022-08-25T06:39:26.170Z,33.099998
2022-08-25T06:40:34.534Z,33.099998
2022-08-25T06:41:43.072Z,32.400002
2022-08-25T06:42:51.410Z,32.400002
2022-08-25T06:44:04.795Z,32.400002
2022-08-25T06:45:08.281Z,34.5
2022-08-25T06:46:16.669Z,34.5
2022-08-25T06:47:25.093Z,34.5
2022-08-25T06:48:33.532Z,33.900002
2022-08-25T06:49:41.874Z,33.900002
2022-08-25T06:50:50.238Z,33.900002
2022-08-25T06:51:58.783Z,36.299999
2022-08-25T06:53:07.132Z,36.299999
2022-08-25T06:54:15.473Z,36.299999
2022-08-25T06:55:24.021Z,33.799999
2022-08-25T06:56:32.383Z,33.799999
2022-08-25T06:57:40.720Z,33.799999
2022-08-25T06:58:49.273Z,35
2022-08-25T06:59:57.623Z,35
2022-08-25T07:01:06.066Z,35
2022-08-25T07:02:14.601Z,31.6
2022-08-25T07:04:31.221Z,31.6
2022-08-25T07:05:43.686Z,35
2022-08-25T07:06:48.120Z,35
2022-08-25T07:07:56.455Z,35
2022-08-25T07:09:05.001Z,37.599998
2022-08-25T07:10:13.383Z,37.599998
2022-08-25T07:11:21.738Z,37.599998
2022-08-25T07:12:30.271Z,33.299999
2022-08-25T07:13:38.628Z,33.299999
2022-08-25T07:14:58.238Z,33.299999
2022-08-25T07:15:55.623Z,34.900002
2022-08-25T07:17:03.891Z,34.900002
2022-08-25T07:18:12.226Z,34.900002
2022-08-25T07:19:21.095Z,32.700001
2022-08-25T07:20:29.128Z,32.700001
2022-08-25T07:21:37.454Z,32.700001
2022-08-25T07:22:46.009Z,34.099998
2022-08-25T07:23:54.358Z,34.099998
2022-08-25T07:25:02.771Z,34.099998
2022-08-25T07:26:27.032Z,31.799999
2022-08-25T07:27:19.618Z,31.799999
2022-08-25T07:28:27.967Z,31.799999
2022-08-25T07:29:36.515Z,31
2022-08-25T07:30:44.872Z,31
2022-08-25T07:31:53.242Z,31
2022-08-25T07:33:04.681Z,28.299999
2022-08-25T07:34:10.113Z,28.299999
2022-08-25T07:36:27.008Z,27.700001
2022-08-25T07:37:50.202Z,27.700001
2022-08-25T07:38:43.697Z,27.700001
2022-08-25T07:39:52.263Z,25.700001
2022-08-25T07:41:00.599Z,25.700001
2022-08-25T07:42:11.877Z,25.700001
2022-08-25T07:43:17.497Z,22.799999
2022-08-25T07:44:27.943Z,22.799999
2022-08-25T07:45:34.192Z,22.799999
2022-08-25T07:46:42.776Z,28.1
2022-08-25T07:47:51.532Z,28.1
2022-08-25T07:48:59.428Z,28.1
2022-08-25T07:50:07.997Z,24.299999
2022-08-25T07:51:16.368Z,24.299999
2022-08-25T07:52:24.680Z,24.299999
2022-08-25T07:53:33.229Z,16.799999
2022-08-25T07:54:41.584Z,16.799999
2022-08-25T07:55:49.958Z,16.799999
2022-08-25T07:56:58.470Z,19
2022-08-25T07:58:06.925Z,19
2022-08-25T07:59:15.158Z,19
2022-08-25T08:00:24.462Z,18.200001
2022-08-25T08:01:32.367Z,18.200001
2022-08-25T08:02:40.793Z,18.200001
2022-08-25T08:03:50.768Z,21.200001
2022-08-25T08:04:57.577Z,21.200001
2022-08-25T08:06:05.918Z,21.200001
2022-08-25T08:07:14.483Z,20.700001
2022-08-25T08:08:22.835Z,20.700001
2022-08-25T08:09:31.192Z,20.700001
2022-08-25T08:11:03.096Z,21.6
2022-08-25T08:11:53.632Z,21.6
2022-08-25T08:12:56.445Z,21.6
2022-08-25T08:14:05.004Z,20.4
2022-08-25T08:15:13.348Z,20.4
2022-08-25T08:16:21.766Z,20.4
2022-08-25T08:17:30.238Z,19.5
2022-08-25T08:18:38.576Z,19.5
2022-08-25T08:19:46.925Z,19.5
2022-08-25T08:20:55.479Z,18.9
2022-08-25T08:22:03.822Z,18.9
2022-08-25T08:23:12.167Z,18.9
2022-08-25T08:24:40.505Z,19.9
2022-08-25T08:25:29.051Z,19.9
2022-08-25T08:26:55.681Z,19.9
2022-08-25T08:27:45.952Z,21.299999
2022-08-25T08:28:54.295Z,21.299999
2022-08-25T08:30:02.647Z,21.299999
2022-08-25T08:31:11.236Z,18.799999
2022-08-25T08:32:19.533Z,18.799999
2022-08-25T08:33:27.883Z,18.799999
2022-08-25T08:34:36.442Z,15.4
2022-08-25T08:35:44.781Z,15.4
2022-08-25T08:36:53.109Z,15.4
2022-08-25T08:38:01.660Z,18.5
2022-08-25T08:39:10.006Z,18.5
2022-08-25T08:40:18.502Z,18.5
2022-08-25T08:41:26.912Z,17.1
2022-08-25T08:42:35.266Z,17.1
2022-08-25T08:43:43.596Z,17.1
2022-08-25T08:44:52.148Z,16.200001
2022-08-25T08:46:00.524Z,16.200001
2022-08-25T08:47:09.027Z,16.200001
2022-08-25T08:48:17.385Z,15.9
2022-08-25T08:49:26.945Z,15.9
2022-08-25T08:50:34.102Z,15.9
2022-08-25T08:51:42.622Z,14.9
2022-08-25T08:52:50.955Z,14.9
2022-08-25T08:53:59.295Z,14.9
2022-08-25T08:55:07.839Z,14.7
2022-08-25T08:56:16.185Z,14.7
2022-08-25T08:57:24.519Z,14.7
2022-08-25T08:58:33.078Z,16.700001
2022-08-25T08:59:41.419Z,16.700001
2022-08-25T09:00:52.110Z,16.700001
2022-08-25T09:01:58.405Z,16.799999
2022-08-25T09:03:06.845Z,16.799999
2022-08-25T09:04:15.001Z,16.799999
2022-08-25T09:05:23.546Z,18
2022-08-25T09:06:31.901Z,18
2022-08-25T09:07:42.227Z,18
2022-08-25T09:08:48.790Z,14.8
2022-08-25T09:09:57.135Z,14.8
2022-08-25T09:11:05.479Z,14.8
2022-08-25T09:12:14.031Z,15.7
2022-08-25T09:13:26.011Z,15.7
2022-08-25T09:14:30.917Z,15.7
2022-08-25T09:15:41.001Z,16.700001
2022-08-25T09:16:47.634Z,16.700001
2022-08-25T09:17:55.958Z,16.700001
2022-08-25T09:19:04.513Z,14.5
2022-08-25T09:20:18.456Z,14.5
2022-08-25T09:21:21.193Z,14.5
2022-08-25T09:22:34.168Z,15.8
2022-08-25T09:23:38.076Z,15.8
2022-08-25T09:24:46.427Z,15.8
2022-08-25T09:25:54.963Z,13.1
2022-08-25T09:27:03.301Z,13.1
2022-08-25T09:28:11.648Z,13.1
2022-08-25T09:29:20.215Z,14.6
2022-08-25T09:30:28.552Z,14.6
2022-08-25T09:31:36.932Z,14.6
2022-08-25T09:32:48.811Z,14.4
2022-08-25T09:33:53.783Z,14.4
2022-08-25T09:35:02.113Z,14.4
2022-08-25T09:36:10.636Z,15.3
2022-08-25T09:37:18.979Z,15.3
2022-08-25T09:38:27.327Z,15.3
2022-08-25T09:39:35.878Z,12.7
2022-08-25T09:40:44.205Z,12.7
2022-08-25T09:41:52.615Z,12.7
2022-08-25T09:43:01.117Z,12.8
2022-08-25T09:44:09.442Z,12.8
2022-08-25T09:45:17.773Z,12.8
2022-08-25T09:46:27.045Z,10.7
2022-08-25T09:47:34.666Z,10.7
2022-08-25T09:48:43.012Z,10.7
2022-08-25T09:49:51.559Z,11.7
2022-08-25T09:50:59.887Z,11.7
2022-08-25T09:52:08.218Z,11.7
2022-08-25T09:53:17.498Z,11
2022-08-25T09:54:25.346Z,11
2022-08-25T09:55:33.435Z,11
2022-08-25T09:56:41.964Z,14.5
2022-08-25T09:57:52.836Z,14.5
2022-08-25T09:59:02.480Z,14.5
2022-08-25T10:00:07.171Z,10.4
2022-08-25T10:01:15.547Z,10.4
2022-08-25T10:02:23.842Z,10.4
2022-08-25T10:03:32.384Z,9.5
2022-08-25T10:04:40.780Z,9.5
2022-08-25T10:05:49.042Z,9.5
2022-08-25T10:06:57.584Z,10.4
2022-08-25T10:08:05.947Z,10.4
2022-08-25T10:09:14.289Z,10.4
2022-08-25T10:10:22.817Z,9.5
2022-08-25T10:11:31.144Z,9.5
2022-08-25T10:12:42.286Z,9.5
2022-08-25T10:13:48.020Z,9.7
2022-08-25T10:14:56.358Z,9.7
2022-08-25T10:16:04.762Z,9.7
2022-08-25T10:17:13.217Z,10.1
2022-08-25T10:18:21.563Z,10.1
2022-08-25T10:19:30.205Z,10.1
2022-08-25T10:20:38.437Z,9.6
2022-08-25T10:21:46.760Z,9.6
2022-08-25T10:22:55.110Z,9.6
2022-08-25T10:24:03.653Z,10.3
2022-08-25T10:25:11.986Z,10.3
2022-08-25T10:26:20.317Z,10.3
2022-08-25T10:27:29.179Z,10
2022-08-25T10:28:37.218Z,10
2022-08-25T10:29:45.553Z,10
2022-08-25T10:30:54.132Z,10.4
2022-08-25T10:32:02.413Z,10.4
2022-08-25T10:33:10.745Z,10.4
2022-08-25T10:34:19.730Z,9
2022-08-25T10:35:27.624Z,9
2022-08-25T10:36:35.963Z,9
2022-08-25T10:37:44.535Z,9.1
2022-08-25T10:38:52.892Z,9.1
2022-08-25T10:40:01.293Z,9.1
2022-08-25T10:41:09.780Z,8.6
2022-08-25T10:42:18.126Z,8.6
2022-08-25T10:43:26.490Z,8.6
2022-08-25T10:44:35.032Z,9.4
2022-08-25T10:45:43.656Z,9.4
2022-08-25T10:46:51.732Z,9.4
2022-08-25T10:48:00.286Z,8.7
2022-08-25T10:49:08.629Z,8.7
2022-08-25T10:50:16.959Z,8.7
2022-08-25T10:51:25.858Z,8.6
2022-08-25T10:52:33.859Z,8.6
2022-08-25T10:53:42.193Z,8.6
2022-08-25T10:54:50.739Z,9
2022-08-25T10:55:59.084Z,9
2022-08-25T10:57:08.174Z,9
2022-08-25T10:58:15.975Z,9.1
2022-08-25T10:59:24.326Z,9.1
2022-08-25T11:00:33.379Z,9.1
2022-08-25T11:01:43.866Z,9.8
2022-08-25T11:02:49.564Z,9.8
2022-08-25T11:03:57.938Z,9.8
2022-08-25T11:05:06.497Z,8.8
2022-08-25T11:06:14.790Z,8.8
2022-08-25T11:07:23.125Z,8.8
2022-08-25T11:08:31.693Z,8.5
2022-08-25T11:09:40.147Z,8.5
2022-08-25T11:10:48.354Z,8.5
2022-08-25T11:11:56.898Z,11.6
2022-08-25T11:13:05.358Z,11.6
2022-08-25T11:14:13.599Z,11.6
2022-08-25T11:15:22.138Z,10.1
2022-08-25T11:16:30.493Z,10.1
2022-08-25T11:17:38.842Z,10.1
2022-08-25T11:18:47.399Z,13.3
2022-08-25T11:19:55.729Z,13.3
2022-08-25T11:21:04.074Z,13.3
2022-08-25T11:22:12.634Z,9.3
2022-08-25T11:23:20.993Z,9.3
2022-08-25T11:24:29.337Z,9.3
2022-08-25T11:25:37.882Z,7.8
2022-08-25T11:26:46.220Z,7.8
2022-08-25T11:27:54.592Z,7.8
2022-08-25T11:29:03.128Z,7.8
2022-08-25T11:30:11.469Z,7.8
2022-08-25T11:31:19.814Z,7.8
2022-08-25T11:32:28.366Z,8
2022-08-25T11:33:36.700Z,8
2022-08-25T11:34:45.028Z,8
2022-08-25T11:35:53.588Z,7.9
2022-08-25T11:37:01.923Z,7.9
2022-08-25T11:38:10.282Z,7.9
2022-08-25T11:39:18.833Z,7.7
2022-08-25T11:40:27.235Z,7.7
2022-08-25T11:41:35.517Z,7.7
2022-08-25T11:42:44.081Z,8.7
2022-08-25T11:43:52.414Z,8.7
2022-08-25T11:45:00.750Z,8.7
2022-08-25T11:46:09.359Z,9.9
2022-08-25T11:47:19.119Z,9.9
2022-08-25T11:48:25.998Z,9.9
2022-08-25T11:49:34.537Z,9
2022-08-25T11:50:42.874Z,9
2022-08-25T11:51:51.231Z,9
2022-08-25T11:52:59.782Z,11.8
2022-08-25T11:54:08.119Z,11.8
2022-08-25T11:55:16.467Z,11.8
2022-08-25T11:56:25.003Z,8.4
2022-08-25T11:57:33.351Z,8.4
2022-08-25T11:58:41.870Z,8.4
2022-08-25T11:59:50.577Z,8.8
2022-08-25T12:00:58.913Z,8.8
2022-08-25T12:02:07.252Z,8.8
2022-08-25T12:03:15.789Z,10.1
2022-08-25T12:04:24.210Z,10.1
2022-08-25T12:05:32.538Z,10.1
2022-08-25T12:06:41.029Z,8.6
2022-08-25T12:07:49.376Z,8.6
2022-08-25T12:08:57.892Z,8.6
2022-08-25T12:10:06.275Z,10.4
2022-08-25T12:11:14.618Z,10.4
2022-08-25T12:12:22.955Z,10.4
2022-08-25T12:13:31.527Z,9.9
2022-08-25T12:14:39.868Z,9.9
2022-08-25T12:15:48.202Z,9.9
2022-08-25T12:16:56.850Z,11.6
2022-08-25T12:18:07.409Z,11.6
2022-08-25T12:19:13.450Z,11.6
2022-08-25T12:20:21.998Z,10.6
2022-08-25T12:21:30.324Z,10.6
2022-08-25T12:22:38.699Z,10.6
2022-08-25T12:23:47.256Z,10
2022-08-25T12:24:55.593Z,10
2022-08-25T12:26:04.116Z,10
2022-08-25T12:27:12.537Z,9.5
2022-08-25T12:28:20.865Z,9.5
2022-08-25T12:29:29.228Z,9.5
2022-08-25T12:30:37.791Z,10.2
2022-08-25T12:31:46.130Z,10.2
2022-08-25T12:32:54.483Z,10.2
2022-08-25T12:34:03.041Z,10.8
2022-08-25T12:35:11.379Z,10.8
2022-08-25T12:36:19.741Z,10.8
2022-08-25T12:37:28.321Z,8.9
2022-08-25T12:38:38.827Z,8.9
2022-08-25T12:39:45.011Z,8.9
2022-08-25T12:40:53.585Z,9.5
2022-08-25T12:43:10.279Z,9.5
2022-08-25T12:44:18.828Z,9.5
2022-08-25T12:45:27.177Z,9.5
2022-08-25T12:46:35.536Z,9.5
2022-08-25T12:47:44.918Z,11.4
2022-08-25T12:48:52.442Z,11.4
2022-08-25T12:50:00.783Z,11.4
2022-08-25T12:51:09.344Z,10.3
2022-08-25T12:52:17.689Z,10.3
2022-08-25T12:53:26.041Z,10.3
2022-08-25T12:54:34.600Z,10.8
2022-08-25T12:55:42.951Z,10.8
2022-08-25T12:56:51.301Z,10.8
2022-08-25T12:57:59.847Z,9.5
2022-08-25T12:59:08.203Z,9.5
2022-08-25T13:00:16.679Z,9.5
2022-08-25T13:01:35.169Z,9.4
2022-08-25T13:02:33.588Z,9.4
2022-08-25T13:04:50.351Z,10.3
2022-08-25T13:05:58.702Z,10.3
2022-08-25T13:07:07.038Z,10.3
2022-08-25T13:08:15.605Z,9.8
2022-08-25T13:09:23.962Z,9.8
2022-08-25T13:10:32.303Z,9.8
2022-08-25T13:11:40.874Z,12.5
2022-08-25T13:12:49.211Z,12.5
2022-08-25T13:13:57.562Z,12.5
2022-08-25T13:15:06.117Z,12.8
2022-08-25T13:16:14.492Z,12.8
2022-08-25T13:17:22.813Z,12.8
2022-08-25T13:18:31.372Z,13.1
2022-08-25T13:19:39.707Z,13.1
2022-08-25T13:20:48.061Z,13.1
2022-08-25T13:21:56.625Z,19.5
2022-08-25T13:23:04.968Z,19.5
2022-08-25T13:24:13.311Z,19.5
2022-08-25T13:25:23.030Z,26.1
2022-08-25T13:26:30.241Z,26.1
2022-08-25T13:27:38.594Z,26.1
2022-08-25T13:28:50.103Z,10.6
2022-08-25T13:29:55.522Z,10.6
2022-08-25T13:31:03.880Z,10.6
2022-08-25T13:32:12.858Z,11.6
2022-08-25T13:33:21.885Z,11.6
2022-08-25T13:34:30.546Z,11.6
2022-08-25T13:35:37.693Z,18
2022-08-25T13:36:47.495Z,18
2022-08-25T13:37:54.383Z,18
2022-08-25T13:39:02.941Z,12.9
2022-08-25T13:40:11.370Z,12.9
2022-08-25T13:41:19.651Z,12.9
2022-08-25T13:42:28.921Z,15.1
2022-08-25T13:43:36.590Z,15.1
2022-08-25T13:44:51.831Z,15.1
2022-08-25T13:45:53.526Z,10.5
2022-08-25T13:47:01.841Z,10.5
2022-08-25T13:48:21.330Z,10.5
2022-08-25T13:49:18.754Z,11.2
2022-08-25T13:50:27.311Z,11.2
2022-08-25T13:51:35.445Z,11.2
2022-08-25T13:52:44.006Z,11.2
2022-08-25T13:53:52.456Z,11.2
2022-08-25T13:55:00.789Z,11.2
2022-08-25T13:56:09.360Z,10.1
2022-08-25T13:57:18.407Z,10.1
2022-08-25T13:58:38.778Z,10.1
2022-08-25T13:59:34.639Z,10.6
2022-08-25T14:00:43.197Z,10.6
2022-08-25T14:01:51.408Z,10.6
2022-08-25T14:03:00.034Z,10.2
2022-08-25T14:05:16.616Z,10.2
2022-08-25T14:06:25.169Z,9.8
2022-08-25T14:07:33.601Z,9.8
2022-08-25T14:08:41.859Z,9.8
2022-08-25T14:09:50.428Z,9.7
2022-08-25T14:10:58.806Z,9.7
2022-08-25T14:12:07.135Z,9.7
2022-08-25T14:13:15.724Z,10.6
2022-08-25T14:14:24.035Z,10.6
2022-08-25T14:15:32.565Z,10.6
2022-08-25T14:16:43.436Z,11.3
2022-08-25T14:17:49.355Z,11.3
2022-08-25T14:18:58.707Z,11.3
2022-08-25T14:20:06.247Z,12.1
2022-08-25T14:21:14.600Z,12.1
2022-08-25T14:22:23.873Z,12.1
2022-08-25T14:23:32.427Z,12.5
2022-08-25T14:24:41.009Z,12.5
2022-08-25T14:25:49.132Z,12.5
2022-08-25T14:26:57.690Z,12.2
2022-08-25T14:28:07.069Z,12.2
2022-08-25T14:29:14.382Z,12.2
2022-08-25T15:03:55.370Z,0
2022-08-25T15:05:03.649Z,0
2022-08-25T15:06:12.007Z,0
2022-08-25T15:07:20.550Z,14.7
2022-08-25T15:08:33.032Z,14.7
2022-08-25T15:09:37.251Z,14.7
2022-08-25T15:10:45.791Z,16.4
2022-08-25T15:11:54.412Z,16.4
2022-08-25T15:13:02.488Z,16.4
2022-08-25T15:14:11.047Z,13.6